createdAt,value
2022-10-19T00:01:03.084Z,28.53
2022-10-19T00:06:34.033Z,26.63
2022-10-19T00:09:19.110Z,30.07
2022-10-19T00:12:02.104Z,26.97
2022-10-19T00:14:45.111Z,19.57
2022-10-19T00:17:29.518Z,22.13
2022-10-19T00:20:13.521Z,20.10
2022-10-19T00:22:56.490Z,22.23
2022-10-19T00:25:39.542Z,17.83
2022-10-19T00:28:22.504Z,21.00
2022-10-19T00:31:06.478Z,16.33
2022-10-19T00:33:51.073Z,18.43
2022-10-19T00:36:36.190Z,18.03
2022-10-19T00:39:20.086Z,19.20
2022-10-19T00:42:03.101Z,14.23
2022-10-19T00:45:08.711Z,18.93
2022-10-19T00:47:52.130Z,16.77
2022-10-19T00:50:36.617Z,16.93
2022-10-19T00:53:19.803Z,17.53
2022-10-19T00:56:08.796Z,19.67
2022-10-19T00:58:51.952Z,18.80
2022-10-19T01:01:35.684Z,16.20
2022-10-19T01:04:21.177Z,18.93
2022-10-19T01:07:08.040Z,18.80
2022-10-19T01:09:51.146Z,19.87
2022-10-19T01:12:48.774Z,23.27
2022-10-19T01:15:40.063Z,16.83
2022-10-19T01:18:30.970Z,16.60
2022-10-19T01:21:36.025Z,17.53
2022-10-19T01:24:56.254Z,23.53
2022-10-19T01:28:13.407Z,14.67
2022-10-19T01:31:02.926Z,16.00
2022-10-19T01:33:50.138Z,17.27
2022-10-19T01:36:42.098Z,18.13
2022-10-19T01:39:35.342Z,18.30
2022-10-19T01:42:27.636Z,14.73
2022-10-19T01:45:17.502Z,15.13
2022-10-19T01:48:06.753Z,14.47
2022-10-19T01:50:55.147Z,15.87
2022-10-19T01:53:42.821Z,18.03
2022-10-19T01:56:28.470Z,18.10
2022-10-19T01:59:13.766Z,13.70
2022-10-19T02:01:59.267Z,18.87
2022-10-19T02:04:44.464Z,14.57
2022-10-19T02:07:28.694Z,18.87
2022-10-19T02:10:11.857Z,20.77
2022-10-19T02:12:56.486Z,21.87
2022-10-19T02:15:42.440Z,16.30
2022-10-19T02:18:29.816Z,20.53
2022-10-19T02:21:14.311Z,21.37
2022-10-19T02:23:57.474Z,27.73
2022-10-19T02:26:41.731Z,34.37
2022-10-19T02:29:24.804Z,32.50
2022-10-19T02:32:08.486Z,37.50
2022-10-19T02:34:51.500Z,28.37
2022-10-19T02:40:24.242Z,24.07
2022-10-19T02:43:11.594Z,33.93
2022-10-19T02:46:00.794Z,33.80
2022-10-19T02:48:45.091Z,24.90
2022-10-19T02:51:29.354Z,28.20
2022-10-19T02:54:13.781Z,24.23
2022-10-19T02:56:57.155Z,21.90
2022-10-19T02:59:40.202Z,16.47
2022-10-19T03:02:23.219Z,15.97
2022-10-19T03:05:06.704Z,12.97
2022-10-19T03:07:49.878Z,20.47
2022-10-19T03:10:34.299Z,15.90
2022-10-19T03:13:17.296Z,13.57
2022-10-19T03:16:07.509Z,14.97
2022-10-19T03:18:50.748Z,18.57
2022-10-19T03:21:35.700Z,17.90
2022-10-19T03:24:18.942Z,14.30
2022-10-19T03:27:03.362Z,13.53
2022-10-19T03:29:46.357Z,16.10
2022-10-19T03:32:29.396Z,17.17
2022-10-19T03:35:12.369Z,18.87
2022-10-19T03:37:55.428Z,27.40
2022-10-19T03:40:38.604Z,58.70
2022-10-19T03:43:23.083Z,23.23
2022-10-19T03:46:06.288Z,22.27
2022-10-19T03:48:49.633Z,17.93
2022-10-19T03:51:33.454Z,25.20
2022-10-19T03:54:18.356Z,29.20
2022-10-19T03:57:01.324Z,35.13
2022-10-19T03:59:45.751Z,25.57
2022-10-19T04:02:28.773Z,26.23
2022-10-19T04:05:11.894Z,26.47
2022-10-19T04:07:54.891Z,25.37
2022-10-19T04:10:37.881Z,31.87
2022-10-19T04:13:20.867Z,22.63
2022-10-19T04:16:06.280Z,19.57
2022-10-19T04:18:49.434Z,22.77
2022-10-19T04:21:34.625Z,22.60
2022-10-19T04:24:20.094Z,18.33
2022-10-19T04:27:03.155Z,25.67
2022-10-19T04:29:46.157Z,25.27
2022-10-19T04:32:30.591Z,21.93
2022-10-19T04:35:13.623Z,26.63
2022-10-19T04:37:56.619Z,31.17
2022-10-19T04:40:39.919Z,24.47
2022-10-19T04:43:23.317Z,25.63
2022-10-19T04:46:08.644Z,24.03
2022-10-19T04:48:53.606Z,26.10
2022-10-19T04:51:36.640Z,32.00
2022-10-19T04:54:19.712Z,35.17
2022-10-19T04:57:02.681Z,35.57
2022-10-19T04:59:45.714Z,35.93
2022-10-19T05:02:28.703Z,34.83
2022-10-19T05:05:14.021Z,23.93
2022-10-19T05:07:57.047Z,35.90
2022-10-19T05:10:43.105Z,31.53
2022-10-19T05:13:28.513Z,31.63
2022-10-19T05:16:14.547Z,39.83
2022-10-19T05:18:59.057Z,35.30
2022-10-19T05:21:43.400Z,28.07
2022-10-19T05:24:26.506Z,32.60
2022-10-19T05:27:09.498Z,36.07
2022-10-19T05:29:52.536Z,43.20
2022-10-19T05:32:35.664Z,39.77
2022-10-19T05:35:21.551Z,40.53
2022-10-19T05:38:06.927Z,41.93
2022-10-19T05:40:52.943Z,38.47
2022-10-19T05:43:36.752Z,41.03
2022-10-19T05:46:19.766Z,48.43
2022-10-19T05:49:02.740Z,34.13
2022-10-19T05:51:46.389Z,43.07
2022-10-19T05:54:30.795Z,41.77
2022-10-19T05:57:13.910Z,30.57
2022-10-19T05:59:58.438Z,32.37
2022-10-19T06:02:41.439Z,38.47
2022-10-19T06:05:24.386Z,33.27
2022-10-19T06:08:08.169Z,33.87
2022-10-19T06:10:52.815Z,32.20
2022-10-19T06:13:35.951Z,32.40
2022-10-19T06:16:19.927Z,34.73
2022-10-19T06:19:03.291Z,42.40
2022-10-19T06:21:47.168Z,34.73
2022-10-19T06:24:30.124Z,65.03
2022-10-19T06:27:14.603Z,43.63
2022-10-19T06:29:57.695Z,33.93
2022-10-19T06:32:40.793Z,43.20
2022-10-19T06:35:23.835Z,37.87
2022-10-19T06:38:06.823Z,47.30
2022-10-19T06:40:49.985Z,56.63
2022-10-19T06:43:34.541Z,39.57
2022-10-19T06:46:20.681Z,31.90
2022-10-19T06:49:03.955Z,35.67
2022-10-19T06:51:46.987Z,37.93
2022-10-19T06:54:30.336Z,28.93
2022-10-19T06:57:13.301Z,29.20
2022-10-19T06:59:57.723Z,37.93
2022-10-19T07:02:40.707Z,33.73
2022-10-19T07:05:23.721Z,33.20
2022-10-19T07:08:06.768Z,34.57
2022-10-19T07:10:52.108Z,36.07
2022-10-19T07:13:35.665Z,22.40
2022-10-19T07:16:21.718Z,30.63
2022-10-19T07:19:04.983Z,21.77
2022-10-19T07:21:51.266Z,23.03
2022-10-19T07:24:34.295Z,19.30
2022-10-19T07:27:17.284Z,14.10
2022-10-19T07:30:00.342Z,22.60
2022-10-19T07:32:47.063Z,14.83
2022-10-19T07:35:30.261Z,17.90
2022-10-19T07:38:13.358Z,17.37
2022-10-19T07:41:02.356Z,27.00
2022-10-19T07:43:46.936Z,18.63
2022-10-19T07:46:33.520Z,28.17
2022-10-19T07:49:20.022Z,25.20
2022-10-19T07:52:03.019Z,25.67
2022-10-19T07:54:49.524Z,19.43
2022-10-19T07:57:32.549Z,18.07
2022-10-19T08:00:16.242Z,25.40
2022-10-19T08:03:31.712Z,24.77
2022-10-19T08:06:05.223Z,31.17
2022-10-19T08:08:49.077Z,20.63
2022-10-19T08:11:33.714Z,23.97
2022-10-19T08:14:16.699Z,20.03
2022-10-19T08:16:59.697Z,29.77
2022-10-19T08:19:43.549Z,22.70
2022-10-19T08:22:28.209Z,30.13
2022-10-19T08:25:11.229Z,32.80
2022-10-19T08:27:54.338Z,27.57
2022-10-19T08:30:37.867Z,33.20
2022-10-19T08:33:20.818Z,40.37
2022-10-19T08:36:06.105Z,32.83
2022-10-19T08:38:51.698Z,35.57
2022-10-19T08:41:39.019Z,39.80
2022-10-19T08:45:04.813Z,32.83
2022-10-19T08:48:05.899Z,36.63
2022-10-19T08:50:49.744Z,41.20
2022-10-19T08:53:41.511Z,40.57
2022-10-19T08:59:42.059Z,37.83
2022-10-19T09:02:41.685Z,36.57
2022-10-19T09:05:33.642Z,40.27
2022-10-19T09:08:18.017Z,43.40
2022-10-19T09:11:01.230Z,30.33
2022-10-19T09:14:04.231Z,36.20
2022-10-19T09:16:48.069Z,29.47
2022-10-19T09:19:32.423Z,25.20
2022-10-19T09:22:20.594Z,38.93
2022-10-19T09:25:09.670Z,20.27
2022-10-19T09:28:05.626Z,21.47
2022-10-19T09:30:53.249Z,25.30
2022-10-19T09:33:40.373Z,14.90
2022-10-19T09:36:39.266Z,18.93
2022-10-19T09:39:31.204Z,18.20
2022-10-19T09:42:23.073Z,22.97
2022-10-19T09:45:17.551Z,11.83
2022-10-19T09:48:07.245Z,20.13
2022-10-19T09:50:57.785Z,13.53
2022-10-19T09:53:45.855Z,21.13
2022-10-19T09:56:29.297Z,20.73
2022-10-19T09:59:23.071Z,13.43
2022-10-19T10:02:17.534Z,14.63
2022-10-19T10:05:08.955Z,18.03
2022-10-19T10:07:56.428Z,18.10
2022-10-19T10:10:43.663Z,14.17
2022-10-19T10:13:28.772Z,9.67
2022-10-19T10:16:15.325Z,17.10
2022-10-19T10:19:01.012Z,14.07
2022-10-19T10:21:51.084Z,11.55
2022-10-19T10:24:35.466Z,14.57
2022-10-19T10:27:30.216Z,14.55
2022-10-19T10:30:21.297Z,10.25
2022-10-19T10:33:21.163Z,12.35
2022-10-19T10:36:10.423Z,17.45
2022-10-19T10:41:51.693Z,17.38
2022-10-19T10:44:36.837Z,17.98
2022-10-19T10:47:21.530Z,11.13
2022-10-19T10:50:07.833Z,10.27
2022-10-19T10:53:01.964Z,12.63
2022-10-19T10:55:56.612Z,18.17
2022-10-19T10:58:48.338Z,11.45
2022-10-19T11:01:37.847Z,13.00
2022-10-19T11:04:25.523Z,14.30
2022-10-19T11:07:19.488Z,14.55
2022-10-19T11:10:10.169Z,14.27
2022-10-19T11:13:04.357Z,7.65
2022-10-19T11:15:54.069Z,15.88
2022-10-19T11:18:42.452Z,9.85
2022-10-19T11:21:30.835Z,14.00
2022-10-19T11:24:24.120Z,13.82
2022-10-19T11:27:19.675Z,13.75
2022-10-19T11:30:14.522Z,18.70
2022-10-19T11:33:07.185Z,14.13
2022-10-19T11:35:54.084Z,10.80
2022-10-19T11:38:49.595Z,19.83
2022-10-19T11:41:38.977Z,19.10
2022-10-19T11:44:38.662Z,23.10
2022-10-19T11:47:51.655Z,20.53
2022-10-19T11:50:46.616Z,21.47
2022-10-19T11:53:47.493Z,22.27
2022-10-19T11:56:58.112Z,19.10
2022-10-19T12:00:13.500Z,14.93
2022-10-19T12:03:41.570Z,14.23
2022-10-19T12:06:32.950Z,8.93
2022-10-19T12:09:27.383Z,14.87
2022-10-19T12:12:26.368Z,14.00
2022-10-19T12:15:24.878Z,13.13
2022-10-19T12:18:15.632Z,20.57
2022-10-19T12:21:03.159Z,11.37
2022-10-19T12:23:48.118Z,15.20
2022-10-19T12:26:35.816Z,12.63
2022-10-19T12:29:22.747Z,12.83
2022-10-19T12:32:07.212Z,15.67
2022-10-19T12:34:57.827Z,14.77
2022-10-19T12:37:50.874Z,20.50
2022-10-19T12:40:40.230Z,18.80
2022-10-19T12:43:29.812Z,15.87
2022-10-19T12:46:25.586Z,10.87
2022-10-19T12:49:38.457Z,15.40
2022-10-19T12:52:42.186Z,17.30
2022-10-19T12:55:31.461Z,21.07
2022-10-19T12:58:22.745Z,18.63
2022-10-19T13:01:08.381Z,12.80
2022-10-19T13:04:06.802Z,13.97
2022-10-19T13:06:52.541Z,20.57
2022-10-19T13:09:37.944Z,15.17
2022-10-19T13:12:47.695Z,14.60
2022-10-19T13:15:52.255Z,10.23
2022-10-19T13:19:21.415Z,19.67
2022-10-19T13:22:27.766Z,20.13
2022-10-19T13:25:27.215Z,14.67
2022-10-19T13:28:46.735Z,13.70
2022-10-19T13:31:33.125Z,21.50
2022-10-19T13:34:17.635Z,17.77
2022-10-19T13:37:01.977Z,13.70
2022-10-19T13:39:45.160Z,18.17
2022-10-19T13:42:29.454Z,17.27
2022-10-19T13:45:22.896Z,21.67
2022-10-19T13:48:18.436Z,20.00
2022-10-19T13:51:10.250Z,18.23
2022-10-19T13:54:03.087Z,13.53
2022-10-19T13:57:07.106Z,13.50
2022-10-19T14:00:15.077Z,19.40
2022-10-19T14:03:22.607Z,15.20
2022-10-19T14:06:27.696Z,21.40
2022-10-19T14:09:55.970Z,18.03
2022-10-19T14:12:43.021Z,15.63
2022-10-19T14:15:29.213Z,14.63
2022-10-19T14:18:25.730Z,12.17
2022-10-19T14:21:10.123Z,10.93
2022-10-19T14:23:53.168Z,16.40
2022-10-19T14:26:36.303Z,13.73
2022-10-19T14:29:19.315Z,15.93
2022-10-19T14:32:02.482Z,14.93
2022-10-19T14:34:48.978Z,22.50
2022-10-19T14:37:32.266Z,22.57
2022-10-19T14:40:28.058Z,16.37
2022-10-19T14:43:22.888Z,13.27
2022-10-19T14:46:14.255Z,17.47
2022-10-19T14:49:01.904Z,15.93
2022-10-19T14:51:51.580Z,15.70
2022-10-19T14:54:37.290Z,18.60
2022-10-19T14:57:25.876Z,13.90
2022-10-19T15:00:16.544Z,18.53
2022-10-19T15:03:03.071Z,12.43
2022-10-19T15:05:49.710Z,31.40
2022-10-19T15:08:40.212Z,15.47
2022-10-19T15:11:29.909Z,20.60
2022-10-19T15:14:16.185Z,20.80
2022-10-19T15:17:01.866Z,19.40
2022-10-19T15:19:46.088Z,26.87
2022-10-19T15:22:40.658Z,19.60
2022-10-19T15:25:33.741Z,16.50
2022-10-19T15:28:21.747Z,16.43
2022-10-19T15:31:07.951Z,15.47
2022-10-19T15:33:53.719Z,21.27
2022-10-19T15:36:36.698Z,19.90
2022-10-19T15:39:37.078Z,19.20
2022-10-19T15:42:33.332Z,18.70
2022-10-19T15:45:31.387Z,19.13
2022-10-19T15:48:26.888Z,16.83
2022-10-19T15:51:38.947Z,22.67
2022-10-19T15:54:23.912Z,16.27
2022-10-19T15:57:26.788Z,23.37
2022-10-19T16:00:14.034Z,21.63
2022-10-19T16:02:57.071Z,27.47
2022-10-19T16:05:40.177Z,14.87
2022-10-19T16:08:23.218Z,22.37
2022-10-19T16:11:06.354Z,23.13
2022-10-19T16:13:50.840Z,18.57
2022-10-19T16:16:34.284Z,24.03
2022-10-19T16:19:17.302Z,19.77
2022-10-19T16:22:00.371Z,21.60
2022-10-19T16:24:43.512Z,21.87
2022-10-19T16:27:26.594Z,21.23
2022-10-19T16:30:12.929Z,25.00
2022-10-19T16:32:55.948Z,21.07
2022-10-19T16:35:39.179Z,23.23
2022-10-19T16:38:22.211Z,26.00
2022-10-19T16:41:07.450Z,18.90
2022-10-19T16:43:55.611Z,23.80
2022-10-19T16:46:40.358Z,28.03
2022-10-19T16:49:23.352Z,19.90
2022-10-19T16:52:06.337Z,28.50
2022-10-19T16:54:49.386Z,22.77
2022-10-19T16:57:32.466Z,19.40
2022-10-19T17:00:15.662Z,18.83
2022-10-19T17:03:00.136Z,18.17
2022-10-19T17:05:43.100Z,25.57
2022-10-19T17:08:36.678Z,18.40
2022-10-19T17:11:29.298Z,27.00
2022-10-19T17:14:13.658Z,20.63
2022-10-19T17:16:56.898Z,21.07
2022-10-19T17:19:41.565Z,20.83
2022-10-19T17:22:24.645Z,25.23
2022-10-19T17:25:08.136Z,26.17
2022-10-19T17:27:51.845Z,23.13
2022-10-19T17:30:34.908Z,25.50
2022-10-19T17:33:17.955Z,25.03
2022-10-19T17:36:08.440Z,25.27
2022-10-19T17:38:51.622Z,22.20
2022-10-19T17:41:34.791Z,25.53
2022-10-19T17:44:18.902Z,21.97
2022-10-19T17:47:02.266Z,29.40
2022-10-19T17:49:45.241Z,19.93
2022-10-19T17:52:29.673Z,19.80
2022-10-19T17:55:13.610Z,31.93
2022-10-19T17:57:56.759Z,21.33
2022-10-19T18:00:40.551Z,22.87
2022-10-19T18:03:24.335Z,21.43
2022-10-19T18:06:10.884Z,23.83
2022-10-19T18:08:57.671Z,26.87
2022-10-19T18:11:42.790Z,21.27
2022-10-19T18:14:25.888Z,18.37
2022-10-19T18:17:08.944Z,20.57
2022-10-19T18:19:51.968Z,23.47
2022-10-19T18:22:35.089Z,22.60
2022-10-19T18:25:25.991Z,24.97
2022-10-19T18:28:19.634Z,25.20
2022-10-19T18:31:07.215Z,19.63
2022-10-19T18:33:56.180Z,20.90
2022-10-19T18:36:39.440Z,23.90
2022-10-19T18:39:22.960Z,23.60
2022-10-19T18:42:07.378Z,26.43
2022-10-19T18:44:50.410Z,20.27
2022-10-19T18:47:33.425Z,22.93
2022-10-19T18:50:17.641Z,21.23
2022-10-19T18:53:00.647Z,26.93
2022-10-19T18:55:44.046Z,25.07
2022-10-19T18:58:30.450Z,23.37
2022-10-19T19:01:16.092Z,22.53
2022-10-19T19:04:06.564Z,21.97
2022-10-19T19:06:49.650Z,25.83
2022-10-19T19:09:32.691Z,29.03
2022-10-19T19:12:16.077Z,23.00
2022-10-19T19:15:00.486Z,28.10
2022-10-19T19:17:43.485Z,24.90
2022-10-19T19:20:26.492Z,27.00
2022-10-19T19:23:09.527Z,25.00
2022-10-19T19:25:52.590Z,22.43
2022-10-19T19:28:37.893Z,23.50
2022-10-19T19:31:26.013Z,24.90
2022-10-19T19:34:09.580Z,23.57
2022-10-19T19:36:52.674Z,22.20
2022-10-19T19:39:35.639Z,20.60
2022-10-19T19:42:18.631Z,24.30
2022-10-19T19:45:01.616Z,20.77
2022-10-19T19:47:45.998Z,27.17
2022-10-19T19:50:29.018Z,26.30
2022-10-19T19:53:12.031Z,24.03
2022-10-19T19:55:55.486Z,32.23
2022-10-19T19:58:38.495Z,27.70
2022-10-19T20:01:22.292Z,20.43
2022-10-19T20:04:07.221Z,23.87
2022-10-19T20:06:50.301Z,28.43
2022-10-19T20:09:33.647Z,29.33
2022-10-19T20:12:16.661Z,28.63
2022-10-19T20:14:59.756Z,25.30
2022-10-19T20:17:43.391Z,29.40
2022-10-19T20:20:27.817Z,26.63
2022-10-19T20:23:10.836Z,25.67
2022-10-19T20:25:53.808Z,27.73
2022-10-19T20:28:36.823Z,32.37
2022-10-19T20:31:20.743Z,25.67
2022-10-19T20:34:08.935Z,31.67
2022-10-19T20:36:53.329Z,25.60
2022-10-19T20:39:36.294Z,22.53
2022-10-19T20:42:20.353Z,26.33
2022-10-19T20:45:03.358Z,25.83
2022-10-19T20:47:46.363Z,26.97
2022-10-19T20:50:29.407Z,30.50
2022-10-19T20:53:13.772Z,35.00
2022-10-19T20:55:56.745Z,30.30
2022-10-19T20:58:42.401Z,28.27
2022-10-19T21:01:26.193Z,31.67
2022-10-19T21:04:11.791Z,32.17
2022-10-19T21:06:54.985Z,35.70
2022-10-19T21:09:39.455Z,36.13
2022-10-19T21:12:22.459Z,28.70
2022-10-19T21:15:05.862Z,31.97
2022-10-19T21:17:48.987Z,25.63
2022-10-19T21:20:32.111Z,27.43
2022-10-19T21:23:15.157Z,32.60
2022-10-19T21:25:59.650Z,39.47
2022-10-19T21:28:47.110Z,32.60
2022-10-19T21:31:30.592Z,27.93
2022-10-19T21:34:15.157Z,32.67
2022-10-19T21:36:58.619Z,31.53
2022-10-19T21:39:41.619Z,29.83
2022-10-19T21:42:26.013Z,33.77
2022-10-19T21:45:29.150Z,34.93
2022-10-19T21:48:13.044Z,31.40
2022-10-19T21:50:56.015Z,34.77
2022-10-19T21:53:39.016Z,38.30
2022-10-19T21:56:22.742Z,31.57
2022-10-19T21:59:07.267Z,33.93
2022-10-19T22:01:50.354Z,40.30
2022-10-19T22:04:33.386Z,34.07
2022-10-19T22:07:16.439Z,36.67
2022-10-19T22:09:59.411Z,38.07
2022-10-19T22:12:42.402Z,34.23
2022-10-19T22:15:26.821Z,43.27
2022-10-19T22:18:10.171Z,37.87
2022-10-19T22:20:53.155Z,35.40
2022-10-19T22:23:36.603Z,34.87
2022-10-19T22:26:22.069Z,34.73
2022-10-19T22:29:06.813Z,36.87
2022-10-19T22:31:51.168Z,39.57
2022-10-19T22:34:34.161Z,40.10
2022-10-19T22:37:17.216Z,42.93
2022-10-19T22:40:00.285Z,46.87
2022-10-19T22:42:43.255Z,34.60
2022-10-19T22:45:26.195Z,41.83
2022-10-19T22:48:10.537Z,32.33
2022-10-19T22:50:53.761Z,32.07
2022-10-19T22:53:36.746Z,41.00
2022-10-19T22:56:19.737Z,33.77
2022-10-19T22:59:04.086Z,42.97
2022-10-19T23:01:47.109Z,35.70
2022-10-19T23:04:31.643Z,40.60
2022-10-19T23:07:14.629Z,44.73
2022-10-19T23:09:57.653Z,39.17
2022-10-19T23:12:40.709Z,40.30
2022-10-19T23:15:23.677Z,40.97
2022-10-19T23:18:06.641Z,45.43
2022-10-19T23:20:58.956Z,41.87
2022-10-19T23:23:42.406Z,40.43
2022-10-19T23:26:25.909Z,40.33
2022-10-19T23:29:08.841Z,37.93
2022-10-19T23:31:51.835Z,43.37
2022-10-19T23:37:24.071Z,42.33
2022-10-19T23:40:08.071Z,39.87
2022-10-19T23:42:51.090Z,44.43
2022-10-19T23:45:34.078Z,38.60
2022-10-19T23:48:17.519Z,44.57
2022-10-19T23:51:01.995Z,51.47
2022-10-19T23:53:48.494Z,48.57
2022-10-19T23:56:31.551Z,46.43
2022-10-19T23:59:14.521Z,44.07
